BSK86 KEYW-KOPF
Flight info
| Callsign | BSK86 |
|---|---|
| Flight time | 0h 27m |
| Altitude | 17000 |
| Route | BUFTT1 BUFTT PYREX BHHIA3 |
| Aircraft | B38M/M-SDE1FGHILORVWXY/HB1 |
Departure
| Time | 2026-04-22 14:32 |
|---|---|
| Airport | Key West International Airport (KEYW) |
Arrival
| Time | 2026-04-22 15:00 |
|---|---|
| Airport | Miami-Opa Locka Executive Airport (KOPF) |
| Time | Latitude | Longitude | Altitude | Speed | Heading |
|---|---|---|---|---|---|
| 2026-04-22 13:52 | 24.55431 | -81.75567 | 18 ft | 0 kts | 180° |
| 2026-04-22 14:27 | 24.55446 | -81.75567 | 19 ft | 11 kts | 178° |
| 2026-04-22 14:27 | 24.55445 | -81.75573 | 19 ft | 4 kts | 230° |
| 2026-04-22 14:27 | 24.55445 | -81.75585 | 21 ft | 0 kts | 285° |
| 2026-04-22 14:28 | 24.55454 | -81.75591 | 21 ft | 5 kts | 343° |
| 2026-04-22 14:28 | 24.55515 | -81.75583 | 18 ft | 10 kts | 33° |
| 2026-04-22 14:28 | 24.55532 | -81.75515 | 19 ft | 3 kts | 85° |
| 2026-04-22 14:28 | 24.55522 | -81.75461 | 20 ft | 11 kts | 139° |
| 2026-04-22 14:29 | 24.55486 | -81.75500 | 18 ft | 10 kts | 282° |
| 2026-04-22 14:29 | 24.55514 | -81.75584 | 18 ft | 13 kts | 290° |
| 2026-04-22 14:29 | 24.55530 | -81.75688 | 18 ft | 15 kts | 271° |
| 2026-04-22 14:29 | 24.55530 | -81.75811 | 17 ft | 18 kts | 269° |
| 2026-04-22 14:30 | 24.55526 | -81.75961 | 14 ft | 22 kts | 268° |
| 2026-04-22 14:30 | 24.55521 | -81.76140 | 11 ft | 25 kts | 268° |
| 2026-04-22 14:30 | 24.55517 | -81.76336 | 11 ft | 27 kts | 270° |
| 2026-04-22 14:30 | 24.55521 | -81.76542 | 10 ft | 22 kts | 269° |
| 2026-04-22 14:31 | 24.55520 | -81.76586 | 10 ft | 1 kts | 270° |
| 2026-04-22 14:31 | 24.55520 | -81.76597 | 11 ft | 2 kts | 271° |
| 2026-04-22 14:31 | 24.55522 | -81.76626 | 11 ft | 6 kts | 277° |
| 2026-04-22 14:31 | 24.55571 | -81.76664 | 12 ft | 13 kts | 11° |
| 2026-04-22 14:32 | 24.55609 | -81.76541 | 11 ft | 30 kts | 88° |
| 2026-04-22 14:32 | 24.55613 | -81.76115 | 15 ft | 94 kts | 89° |
| 2026-04-22 14:32 | 24.55625 | -81.75135 | 225 ft | 148 kts | 88° |
| 2026-04-22 14:32 | 24.55863 | -81.73982 | 1123 ft | 164 kts | 66° |
| 2026-04-22 14:33 | 24.56610 | -81.72989 | 2185 ft | 176 kts | 39° |
| 2026-04-22 14:33 | 24.57812 | -81.72550 | 2972 ft | 199 kts | 7° |
| 2026-04-22 14:33 | 24.59298 | -81.72738 | 3560 ft | 230 kts | 354° |
| 2026-04-22 14:33 | 24.60922 | -81.73063 | 4324 ft | 250 kts | 354° |
| 2026-04-22 14:34 | 24.62703 | -81.73400 | 5129 ft | 268 kts | 353° |
| 2026-04-22 14:34 | 24.64579 | -81.73686 | 6193 ft | 271 kts | 357° |
| 2026-04-22 14:34 | 24.66409 | -81.73243 | 7322 ft | 276 kts | 26° |
| 2026-04-22 14:34 | 24.67985 | -81.71978 | 8291 ft | 285 kts | 37° |
| 2026-04-22 14:35 | 24.69546 | -81.70618 | 9384 ft | 284 kts | 36° |
| 2026-04-22 14:35 | 24.71071 | -81.69306 | 10714 ft | 274 kts | 36° |
| 2026-04-22 14:35 | 24.72624 | -81.67977 | 11354 ft | 292 kts | 36° |
| 2026-04-22 14:35 | 24.74289 | -81.66565 | 11822 ft | 313 kts | 36° |
| 2026-04-22 14:36 | 24.76041 | -81.65077 | 12330 ft | 330 kts | 35° |
| 2026-04-22 14:36 | 24.77896 | -81.63501 | 12950 ft | 342 kts | 34° |
| 2026-04-22 14:36 | 24.79787 | -81.61886 | 13845 ft | 345 kts | 35° |
| 2026-04-22 14:36 | 24.81704 | -81.60250 | 14567 ft | 351 kts | 35° |
| 2026-04-22 14:37 | 24.83694 | -81.58651 | 15189 ft | 358 kts | 28° |
| 2026-04-22 14:37 | 24.85890 | -81.57198 | 15458 ft | 377 kts | 28° |
| 2026-04-22 14:37 | 24.88183 | -81.55658 | 15658 ft | 395 kts | 29° |
| 2026-04-22 14:37 | 24.90570 | -81.54034 | 15953 ft | 409 kts | 29° |
| 2026-04-22 14:38 | 24.92970 | -81.52388 | 16560 ft | 411 kts | 29° |
| 2026-04-22 14:38 | 24.95422 | -81.50704 | 16872 ft | 416 kts | 29° |
| 2026-04-22 14:38 | 24.97856 | -81.49028 | 16995 ft | 403 kts | 29° |
| 2026-04-22 14:38 | 25.00213 | -81.47405 | 17005 ft | 397 kts | 29° |
| 2026-04-22 14:39 | 25.02556 | -81.45792 | 17004 ft | 396 kts | 29° |
| 2026-04-22 14:39 | 25.04898 | -81.44178 | 16995 ft | 396 kts | 29° |
| 2026-04-22 14:39 | 25.07235 | -81.42567 | 16999 ft | 396 kts | 29° |
| 2026-04-22 14:40 | 25.11880 | -81.39362 | 16997 ft | 396 kts | 29° |
| 2026-04-22 14:40 | 25.14218 | -81.37749 | 17001 ft | 396 kts | 29° |
| 2026-04-22 14:40 | 25.16554 | -81.36135 | 16993 ft | 397 kts | 29° |
| 2026-04-22 14:40 | 25.18888 | -81.34522 | 17003 ft | 389 kts | 29° |
| 2026-04-22 14:41 | 25.21142 | -81.32965 | 17005 ft | 373 kts | 29° |
| 2026-04-22 14:41 | 25.23223 | -81.31289 | 16823 ft | 367 kts | 39° |
| 2026-04-22 14:41 | 25.25144 | -81.29450 | 16458 ft | 364 kts | 38° |
| 2026-04-22 14:41 | 25.27046 | -81.27683 | 16093 ft | 361 kts | 37° |
| 2026-04-22 14:42 | 25.28988 | -81.25897 | 15695 ft | 369 kts | 37° |
| 2026-04-22 14:42 | 25.31012 | -81.24048 | 15250 ft | 384 kts | 37° |
| 2026-04-22 14:42 | 25.33120 | -81.22126 | 14812 ft | 398 kts | 37° |
| 2026-04-22 14:42 | 25.35272 | -81.20166 | 14418 ft | 403 kts | 38° |
| 2026-04-22 14:43 | 25.37447 | -81.18184 | 13993 ft | 405 kts | 38° |
| 2026-04-22 14:43 | 25.39623 | -81.16201 | 13505 ft | 403 kts | 38° |
| 2026-04-22 14:43 | 25.41782 | -81.14233 | 13028 ft | 399 kts | 38° |
| 2026-04-22 14:43 | 25.43891 | -81.12309 | 12574 ft | 396 kts | 38° |
| 2026-04-22 14:44 | 25.46011 | -81.10373 | 12143 ft | 392 kts | 38° |
| 2026-04-22 14:44 | 25.48121 | -81.08448 | 11710 ft | 389 kts | 38° |
| 2026-04-22 14:44 | 25.50200 | -81.06547 | 11273 ft | 386 kts | 38° |
| 2026-04-22 14:44 | 25.52234 | -81.04688 | 10854 ft | 383 kts | 38° |
| 2026-04-22 14:45 | 25.54279 | -81.02818 | 10625 ft | 380 kts | 38° |
| 2026-04-22 14:45 | 25.56315 | -81.00957 | 10439 ft | 379 kts | 38° |
| 2026-04-22 14:45 | 25.58346 | -80.99098 | 10258 ft | 374 kts | 38° |
| 2026-04-22 14:45 | 25.60331 | -80.97281 | 10072 ft | 363 kts | 38° |
| 2026-04-22 14:46 | 25.62441 | -80.95820 | 9622 ft | 356 kts | 19° |
| 2026-04-22 14:46 | 25.64823 | -80.95378 | 9199 ft | 350 kts | 1° |
| 2026-04-22 14:46 | 25.67266 | -80.95228 | 8830 ft | 345 kts | 4° |
| 2026-04-22 14:46 | 25.69617 | -80.95049 | 8457 ft | 341 kts | 4° |
| 2026-04-22 14:47 | 25.71971 | -80.94860 | 8090 ft | 336 kts | 5° |
| 2026-04-22 14:47 | 25.74276 | -80.94670 | 7716 ft | 324 kts | 5° |
| 2026-04-22 14:47 | 25.76483 | -80.94488 | 7396 ft | 312 kts | 5° |
| 2026-04-22 14:47 | 25.78645 | -80.94302 | 7076 ft | 309 kts | 8° |
| 2026-04-22 14:48 | 25.80629 | -80.93600 | 7030 ft | 292 kts | 33° |
| 2026-04-22 14:48 | 25.82043 | -80.92135 | 7019 ft | 274 kts | 58° |
| 2026-04-22 14:48 | 25.82793 | -80.90261 | 7020 ft | 261 kts | 72° |
| 2026-04-22 14:48 | 25.83351 | -80.88358 | 7009 ft | 255 kts | 73° |
| 2026-04-22 14:49 | 25.83883 | -80.86522 | 7006 ft | 246 kts | 73° |
| 2026-04-22 14:49 | 25.84407 | -80.84729 | 7016 ft | 240 kts | 73° |
| 2026-04-22 14:49 | 25.84918 | -80.82984 | 7024 ft | 234 kts | 73° |
| 2026-04-22 14:49 | 25.85419 | -80.81284 | 7000 ft | 229 kts | 73° |
| 2026-04-22 14:50 | 25.85911 | -80.79626 | 6853 ft | 226 kts | 73° |
| 2026-04-22 14:50 | 25.86405 | -80.78001 | 6617 ft | 217 kts | 73° |
| 2026-04-22 14:50 | 25.86883 | -80.76454 | 6387 ft | 207 kts | 73° |
| 2026-04-22 14:50 | 25.87345 | -80.74974 | 6139 ft | 198 kts | 73° |
| 2026-04-22 14:51 | 25.87796 | -80.73539 | 5912 ft | 197 kts | 73° |
| 2026-04-22 14:51 | 25.88235 | -80.72112 | 5664 ft | 192 kts | 73° |
| 2026-04-22 14:51 | 25.88675 | -80.70719 | 5249 ft | 192 kts | 73° |
| 2026-04-22 14:51 | 25.89112 | -80.69339 | 4852 ft | 191 kts | 73° |
| 2026-04-22 14:52 | 25.89553 | -80.67946 | 4420 ft | 195 kts | 72° |
| 2026-04-22 14:52 | 25.89990 | -80.66516 | 4049 ft | 194 kts | 73° |
| 2026-04-22 14:52 | 25.90425 | -80.65092 | 3974 ft | 195 kts | 73° |
| 2026-04-22 14:52 | 25.90859 | -80.63659 | 3955 ft | 195 kts | 73° |
| 2026-04-22 14:53 | 25.91276 | -80.62244 | 3969 ft | 186 kts | 73° |
| 2026-04-22 14:53 | 25.91673 | -80.60922 | 3973 ft | 176 kts | 77° |
| 2026-04-22 14:53 | 25.91656 | -80.59587 | 3984 ft | 174 kts | 100° |
| 2026-04-22 14:53 | 25.91424 | -80.58267 | 3998 ft | 174 kts | 96° |
| 2026-04-22 14:54 | 25.91290 | -80.56930 | 4001 ft | 174 kts | 95° |
| 2026-04-22 14:54 | 25.91153 | -80.55609 | 3998 ft | 174 kts | 96° |
| 2026-04-22 14:54 | 25.91011 | -80.54269 | 3984 ft | 174 kts | 96° |
| 2026-04-22 14:54 | 25.90865 | -80.52933 | 3992 ft | 174 kts | 96° |
| 2026-04-22 14:55 | 25.90684 | -80.51598 | 3880 ft | 175 kts | 100° |
| 2026-04-22 14:55 | 25.90498 | -80.50277 | 3672 ft | 175 kts | 96° |
| 2026-04-22 14:55 | 25.90413 | -80.48931 | 3466 ft | 174 kts | 91° |
| 2026-04-22 14:55 | 25.90403 | -80.47590 | 3245 ft | 172 kts | 89° |
| 2026-04-22 14:56 | 25.90436 | -80.46260 | 3032 ft | 172 kts | 89° |
| 2026-04-22 14:56 | 25.90489 | -80.44938 | 2814 ft | 170 kts | 87° |
| 2026-04-22 14:56 | 25.90544 | -80.43627 | 2632 ft | 170 kts | 92° |
| 2026-04-22 14:56 | 25.90561 | -80.42316 | 2375 ft | 170 kts | 88° |
| 2026-04-22 14:57 | 25.90611 | -80.41055 | 2231 ft | 158 kts | 84° |
| 2026-04-22 14:57 | 25.90753 | -80.39887 | 1973 ft | 151 kts | 82° |
| 2026-04-22 14:57 | 25.90858 | -80.38738 | 1801 ft | 146 kts | 89° |
| 2026-04-22 14:57 | 25.90873 | -80.37662 | 1739 ft | 132 kts | 91° |
| 2026-04-22 14:58 | 25.90879 | -80.36674 | 1511 ft | 123 kts | 89° |
| 2026-04-22 14:58 | 25.90909 | -80.35746 | 1293 ft | 124 kts | 86° |
| 2026-04-22 14:58 | 25.90989 | -80.34733 | 1151 ft | 135 kts | 86° |
| 2026-04-22 14:58 | 25.91035 | -80.33705 | 1020 ft | 131 kts | 89° |
| 2026-04-22 14:59 | 25.91083 | -80.32712 | 799 ft | 128 kts | 88° |
| 2026-04-22 14:59 | 25.91126 | -80.31729 | 615 ft | 128 kts | 89° |
| 2026-04-22 14:59 | 25.91170 | -80.30726 | 467 ft | 129 kts | 86° |
| 2026-04-22 14:59 | 25.91226 | -80.29752 | 219 ft | 126 kts | 88° |
| 2026-04-22 15:00 | 25.91270 | -80.28822 | 48 ft | 114 kts | 88° |
| 2026-04-22 15:00 | 25.91308 | -80.28057 | 14 ft | 73 kts | 88° |
| 2026-04-22 15:00 | 25.91320 | -80.27688 | 16 ft | 16 kts | 100° |
| 2026-04-22 15:00 | 25.91299 | -80.27658 | 17 ft | 7 kts | 151° |
| 2026-04-22 15:01 | 25.91228 | -80.27646 | 18 ft | 9 kts | 178° |
| 2026-04-22 15:01 | 25.91198 | -80.27623 | 19 ft | 9 kts | 117° |
| 2026-04-22 15:01 | 25.91192 | -80.27549 | 18 ft | 11 kts | 85° |